sensor_id;sensor_type;location;lat;lon;timestamp;P1;durP1;ratioP1;P2;durP2;ratioP2
34019;SDS011;20895;51.034;3.742;2023-06-22T00:00:16;6.40;;;3.63;;
34019;SDS011;20895;51.034;3.742;2023-06-22T00:02:42;6.78;;;4.00;;
34019;SDS011;20895;51.034;3.742;2023-06-22T00:05:07;5.80;;;4.05;;
34019;SDS011;20895;51.034;3.742;2023-06-22T00:07:32;7.03;;;3.72;;
34019;SDS011;20895;51.034;3.742;2023-06-22T00:09:57;6.40;;;3.70;;
34019;SDS011;20895;51.034;3.742;2023-06-22T00:12:23;6.50;;;4.20;;
34019;SDS011;20895;51.034;3.742;2023-06-22T00:14:48;6.43;;;4.20;;
34019;SDS011;20895;51.034;3.742;2023-06-22T00:17:13;6.17;;;4.30;;
34019;SDS011;20895;51.034;3.742;2023-06-22T00:19:38;7.45;;;4.05;;
34019;SDS011;20895;51.034;3.742;2023-06-22T00:22:05;8.00;;;4.53;;
34019;SDS011;20895;51.034;3.742;2023-06-22T00:24:33;6.28;;;4.53;;
34019;SDS011;20895;51.034;3.742;2023-06-22T00:26:59;7.30;;;4.85;;
34019;SDS011;20895;51.034;3.742;2023-06-22T00:29:24;7.75;;;5.22;;
34019;SDS011;20895;51.034;3.742;2023-06-22T00:31:49;7.75;;;5.28;;
34019;SDS011;20895;51.034;3.742;2023-06-22T00:34:14;9.37;;;6.10;;
34019;SDS011;20895;51.034;3.742;2023-06-22T00:36:40;10.32;;;6.20;;
34019;SDS011;20895;51.034;3.742;2023-06-22T00:39:06;9.82;;;5.85;;
34019;SDS011;20895;51.034;3.742;2023-06-22T00:41:32;8.05;;;5.47;;
34019;SDS011;20895;51.034;3.742;2023-06-22T00:43:57;7.18;;;5.55;;
34019;SDS011;20895;51.034;3.742;2023-06-22T00:46:23;7.13;;;5.57;;
34019;SDS011;20895;51.034;3.742;2023-06-22T00:48:49;12.73;;;6.63;;
34019;SDS011;20895;51.034;3.742;2023-06-22T00:51:15;8.52;;;6.10;;
34019;SDS011;20895;51.034;3.742;2023-06-22T00:53:40;7.70;;;5.90;;
34019;SDS011;20895;51.034;3.742;2023-06-22T00:56:06;8.38;;;5.93;;
34019;SDS011;20895;51.034;3.742;2023-06-22T00:58:34;9.00;;;5.85;;
34019;SDS011;20895;51.034;3.742;2023-06-22T01:00:59;7.93;;;4.88;;
34019;SDS011;20895;51.034;3.742;2023-06-22T01:03:26;7.80;;;5.28;;
34019;SDS011;20895;51.034;3.742;2023-06-22T01:05:51;7.07;;;4.80;;
34019;SDS011;20895;51.034;3.742;2023-06-22T01:10:50;6.68;;;4.57;;
34019;SDS011;20895;51.034;3.742;2023-06-22T01:13:28;6.68;;;4.65;;
34019;SDS011;20895;51.034;3.742;2023-06-22T01:18:30;9.45;;;4.90;;
34019;SDS011;20895;51.034;3.742;2023-06-22T01:20:55;7.22;;;4.35;;
34019;SDS011;20895;51.034;3.742;2023-06-22T01:25:58;7.55;;;4.03;;
34019;SDS011;20895;51.034;3.742;2023-06-22T01:28:43;6.47;;;4.10;;
34019;SDS011;20895;51.034;3.742;2023-06-22T01:31:10;5.97;;;4.38;;
34019;SDS011;20895;51.034;3.742;2023-06-22T01:33:37;5.82;;;3.95;;
34019;SDS011;20895;51.034;3.742;2023-06-22T01:36:03;5.60;;;3.85;;
34019;SDS011;20895;51.034;3.742;2023-06-22T01:38:29;5.93;;;3.83;;
34019;SDS011;20895;51.034;3.742;2023-06-22T01:40:54;4.72;;;3.33;;
34019;SDS011;20895;51.034;3.742;2023-06-22T01:43:20;5.45;;;3.80;;
34019;SDS011;20895;51.034;3.742;2023-06-22T01:45:48;5.97;;;4.25;;
34019;SDS011;20895;51.034;3.742;2023-06-22T01:48:13;5.93;;;4.38;;
34019;SDS011;20895;51.034;3.742;2023-06-22T01:50:38;6.45;;;5.20;;
34019;SDS011;20895;51.034;3.742;2023-06-22T01:53:03;7.97;;;4.90;;
34019;SDS011;20895;51.034;3.742;2023-06-22T01:55:31;5.57;;;4.28;;
34019;SDS011;20895;51.034;3.742;2023-06-22T01:57:57;10.00;;;4.90;;
34019;SDS011;20895;51.034;3.742;2023-06-22T02:00:22;9.73;;;5.53;;
34019;SDS011;20895;51.034;3.742;2023-06-22T02:05:21;5.78;;;4.47;;
34019;SDS011;20895;51.034;3.742;2023-06-22T02:08:11;7.75;;;5.13;;
34019;SDS011;20895;51.034;3.742;2023-06-22T02:10:34;7.03;;;5.13;;
34019;SDS011;20895;51.034;3.742;2023-06-22T02:13:01;11.18;;;5.78;;
34019;SDS011;20895;51.034;3.742;2023-06-22T02:15:27;6.70;;;5.15;;
34019;SDS011;20895;51.034;3.742;2023-06-22T02:17:53;9.23;;;6.40;;
34019;SDS011;20895;51.034;3.742;2023-06-22T02:20:18;7.60;;;5.47;;
34019;SDS011;20895;51.034;3.742;2023-06-22T02:22:43;6.82;;;5.43;;
34019;SDS011;20895;51.034;3.742;2023-06-22T02:25:09;7.57;;;5.25;;
34019;SDS011;20895;51.034;3.742;2023-06-22T02:27:34;6.53;;;4.88;;
34019;SDS011;20895;51.034;3.742;2023-06-22T02:29:59;7.72;;;4.40;;
34019;SDS011;20895;51.034;3.742;2023-06-22T02:32:24;6.22;;;4.35;;
34019;SDS011;20895;51.034;3.742;2023-06-22T02:34:50;5.82;;;4.43;;
34019;SDS011;20895;51.034;3.742;2023-06-22T02:37:16;6.85;;;4.32;;
34019;SDS011;20895;51.034;3.742;2023-06-22T02:39:41;7.88;;;4.68;;
34019;SDS011;20895;51.034;3.742;2023-06-22T02:42:06;9.77;;;5.18;;
34019;SDS011;20895;51.034;3.742;2023-06-22T02:44:31;6.78;;;5.20;;
34019;SDS011;20895;51.034;3.742;2023-06-22T02:46:57;6.43;;;4.60;;
34019;SDS011;20895;51.034;3.742;2023-06-22T02:49:23;6.28;;;4.35;;
34019;SDS011;20895;51.034;3.742;2023-06-22T02:51:48;6.13;;;4.40;;
34019;SDS011;20895;51.034;3.742;2023-06-22T02:54:13;6.07;;;4.70;;
34019;SDS011;20895;51.034;3.742;2023-06-22T02:56:38;7.07;;;4.68;;
34019;SDS011;20895;51.034;3.742;2023-06-22T02:59:05;6.85;;;4.72;;
34019;SDS011;20895;51.034;3.742;2023-06-22T03:01:31;6.45;;;4.95;;
34019;SDS011;20895;51.034;3.742;2023-06-22T03:04:02;6.22;;;4.22;;
34019;SDS011;20895;51.034;3.742;2023-06-22T03:06:27;5.70;;;4.13;;
34019;SDS011;20895;51.034;3.742;2023-06-22T03:08:57;5.53;;;4.30;;
34019;SDS011;20895;51.034;3.742;2023-06-22T03:11:22;7.53;;;4.68;;
34019;SDS011;20895;51.034;3.742;2023-06-22T03:13:47;6.63;;;4.93;;
34019;SDS011;20895;51.034;3.742;2023-06-22T03:16:13;7.80;;;4.65;;
34019;SDS011;20895;51.034;3.742;2023-06-22T03:18:38;6.88;;;6.18;;
34019;SDS011;20895;51.034;3.742;2023-06-22T03:21:03;5.75;;;5.10;;
34019;SDS011;20895;51.034;3.742;2023-06-22T03:23:29;7.18;;;5.53;;
34019;SDS011;20895;51.034;3.742;2023-06-22T03:25:54;9.50;;;5.93;;
34019;SDS011;20895;51.034;3.742;2023-06-22T03:28:20;9.13;;;6.22;;
34019;SDS011;20895;51.034;3.742;2023-06-22T03:30:46;7.47;;;5.80;;
34019;SDS011;20895;51.034;3.742;2023-06-22T03:33:11;7.75;;;5.95;;
34019;SDS011;20895;51.034;3.742;2023-06-22T03:35:37;10.07;;;5.28;;
34019;SDS011;20895;51.034;3.742;2023-06-22T03:38:02;7.43;;;5.97;;
34019;SDS011;20895;51.034;3.742;2023-06-22T03:40:27;6.85;;;4.55;;
34019;SDS011;20895;51.034;3.742;2023-06-22T03:42:53;8.45;;;5.20;;
34019;SDS011;20895;51.034;3.742;2023-06-22T03:45:18;7.13;;;5.07;;
34019;SDS011;20895;51.034;3.742;2023-06-22T03:47:43;7.57;;;5.32;;
34019;SDS011;20895;51.034;3.742;2023-06-22T03:50:08;6.37;;;5.33;;
34019;SDS011;20895;51.034;3.742;2023-06-22T03:52:34;10.02;;;6.55;;
34019;SDS011;20895;51.034;3.742;2023-06-22T03:54:59;9.63;;;6.43;;
34019;SDS011;20895;51.034;3.742;2023-06-22T03:57:24;9.50;;;6.53;;
34019;SDS011;20895;51.034;3.742;2023-06-22T03:59:49;8.88;;;6.38;;
34019;SDS011;20895;51.034;3.742;2023-06-22T04:02:15;8.40;;;5.77;;
34019;SDS011;20895;51.034;3.742;2023-06-22T04:04:40;8.53;;;5.60;;
34019;SDS011;20895;51.034;3.742;2023-06-22T04:07:05;11.88;;;6.03;;
34019;SDS011;20895;51.034;3.742;2023-06-22T04:09:30;11.98;;;5.88;;
34019;SDS011;20895;51.034;3.742;2023-06-22T04:11:56;10.50;;;6.50;;
34019;SDS011;20895;51.034;3.742;2023-06-22T04:14:21;12.18;;;6.50;;
34019;SDS011;20895;51.034;3.742;2023-06-22T04:16:46;9.63;;;6.68;;
34019;SDS011;20895;51.034;3.742;2023-06-22T04:19:12;12.32;;;7.65;;
34019;SDS011;20895;51.034;3.742;2023-06-22T04:21:41;13.35;;;8.23;;
34019;SDS011;20895;51.034;3.742;2023-06-22T04:24:06;13.95;;;8.15;;
34019;SDS011;20895;51.034;3.742;2023-06-22T04:26:32;11.10;;;7.53;;
34019;SDS011;20895;51.034;3.742;2023-06-22T04:29:01;12.63;;;8.73;;
34019;SDS011;20895;51.034;3.742;2023-06-22T04:31:30;15.98;;;9.32;;
34019;SDS011;20895;51.034;3.742;2023-06-22T04:33:57;13.88;;;8.82;;
34019;SDS011;20895;51.034;3.742;2023-06-22T04:36:22;16.63;;;9.27;;
34019;SDS011;20895;51.034;3.742;2023-06-22T04:38:48;12.73;;;8.23;;
34019;SDS011;20895;51.034;3.742;2023-06-22T04:41:14;13.70;;;8.88;;
34019;SDS011;20895;51.034;3.742;2023-06-22T04:43:48;17.15;;;9.68;;
34019;SDS011;20895;51.034;3.742;2023-06-22T04:46:18;18.60;;;8.75;;
34019;SDS011;20895;51.034;3.742;2023-06-22T04:48:44;13.40;;;9.23;;
34019;SDS011;20895;51.034;3.742;2023-06-22T04:51:09;17.85;;;12.40;;
34019;SDS011;20895;51.034;3.742;2023-06-22T04:53:35;17.48;;;9.32;;
34019;SDS011;20895;51.034;3.742;2023-06-22T04:56:00;18.92;;;9.65;;
34019;SDS011;20895;51.034;3.742;2023-06-22T04:58:26;19.88;;;9.90;;
34019;SDS011;20895;51.034;3.742;2023-06-22T05:00:57;16.27;;;9.77;;
34019;SDS011;20895;51.034;3.742;2023-06-22T05:03:24;15.18;;;8.55;;
34019;SDS011;20895;51.034;3.742;2023-06-22T05:05:50;15.65;;;8.98;;
34019;SDS011;20895;51.034;3.742;2023-06-22T05:08:16;11.97;;;9.37;;
34019;SDS011;20895;51.034;3.742;2023-06-22T05:10:41;12.23;;;8.18;;
34019;SDS011;20895;51.034;3.742;2023-06-22T05:13:06;13.15;;;7.78;;
34019;SDS011;20895;51.034;3.742;2023-06-22T05:15:31;13.97;;;7.23;;
34019;SDS011;20895;51.034;3.742;2023-06-22T05:18:01;12.38;;;6.82;;
34019;SDS011;20895;51.034;3.742;2023-06-22T05:20:30;15.43;;;7.43;;
34019;SDS011;20895;51.034;3.742;2023-06-22T05:22:55;11.45;;;6.38;;
34019;SDS011;20895;51.034;3.742;2023-06-22T05:25:21;15.88;;;6.57;;
34019;SDS011;20895;51.034;3.742;2023-06-22T05:27:46;10.38;;;5.78;;
34019;SDS011;20895;51.034;3.742;2023-06-22T05:30:11;10.98;;;6.68;;
34019;SDS011;20895;51.034;3.742;2023-06-22T05:32:36;12.40;;;6.35;;
34019;SDS011;20895;51.034;3.742;2023-06-22T05:35:02;10.90;;;6.23;;
34019;SDS011;20895;51.034;3.742;2023-06-22T05:37:28;12.68;;;6.95;;
34019;SDS011;20895;51.034;3.742;2023-06-22T05:39:53;10.07;;;6.57;;
34019;SDS011;20895;51.034;3.742;2023-06-22T05:42:20;13.82;;;7.65;;
34019;SDS011;20895;51.034;3.742;2023-06-22T05:44:45;12.20;;;7.10;;
34019;SDS011;20895;51.034;3.742;2023-06-22T05:47:12;8.43;;;6.50;;
34019;SDS011;20895;51.034;3.742;2023-06-22T05:49:37;14.50;;;6.45;;
34019;SDS011;20895;51.034;3.742;2023-06-22T05:52:02;9.50;;;6.72;;
34019;SDS011;20895;51.034;3.742;2023-06-22T05:54:28;12.65;;;7.00;;
34019;SDS011;20895;51.034;3.742;2023-06-22T05:56:53;11.77;;;7.73;;
34019;SDS011;20895;51.034;3.742;2023-06-22T05:59:18;12.20;;;6.82;;
34019;SDS011;20895;51.034;3.742;2023-06-22T06:01:44;11.52;;;7.53;;
34019;SDS011;20895;51.034;3.742;2023-06-22T06:04:09;10.48;;;7.80;;
34019;SDS011;20895;51.034;3.742;2023-06-22T06:06:34;12.13;;;8.00;;
34019;SDS011;20895;51.034;3.742;2023-06-22T06:09:05;9.95;;;8.50;;
34019;SDS011;20895;51.034;3.742;2023-06-22T06:11:30;11.18;;;8.55;;
34019;SDS011;20895;51.034;3.742;2023-06-22T06:13:56;12.93;;;8.43;;
34019;SDS011;20895;51.034;3.742;2023-06-22T06:16:21;10.33;;;8.23;;
34019;SDS011;20895;51.034;3.742;2023-06-22T06:18:47;14.15;;;8.98;;
34019;SDS011;20895;51.034;3.742;2023-06-22T06:21:14;12.55;;;10.27;;
34019;SDS011;20895;51.034;3.742;2023-06-22T06:23:40;15.23;;;10.60;;
34019;SDS011;20895;51.034;3.742;2023-06-22T06:26:05;12.75;;;9.95;;
34019;SDS011;20895;51.034;3.742;2023-06-22T06:28:32;13.20;;;10.23;;
34019;SDS011;20895;51.034;3.742;2023-06-22T06:30:57;11.13;;;9.10;;
34019;SDS011;20895;51.034;3.742;2023-06-22T06:33:22;11.50;;;9.27;;
34019;SDS011;20895;51.034;3.742;2023-06-22T06:35:48;14.20;;;10.35;;
34019;SDS011;20895;51.034;3.742;2023-06-22T06:38:14;12.93;;;10.50;;
34019;SDS011;20895;51.034;3.742;2023-06-22T06:40:39;15.77;;;12.43;;
34019;SDS011;20895;51.034;3.742;2023-06-22T06:43:04;14.77;;;11.80;;
34019;SDS011;20895;51.034;3.742;2023-06-22T06:45:29;13.57;;;11.20;;
34019;SDS011;20895;51.034;3.742;2023-06-22T06:47:57;13.68;;;11.55;;
34019;SDS011;20895;51.034;3.742;2023-06-22T06:50:23;14.10;;;11.03;;
34019;SDS011;20895;51.034;3.742;2023-06-22T06:52:48;16.13;;;12.10;;
34019;SDS011;20895;51.034;3.742;2023-06-22T06:55:15;17.38;;;11.82;;
34019;SDS011;20895;51.034;3.742;2023-06-22T06:57:41;13.00;;;10.80;;
34019;SDS011;20895;51.034;3.742;2023-06-22T07:00:07;12.88;;;11.40;;
34019;SDS011;20895;51.034;3.742;2023-06-22T07:02:36;15.68;;;11.98;;
34019;SDS011;20895;51.034;3.742;2023-06-22T07:05:01;13.23;;;11.90;;
34019;SDS011;20895;51.034;3.742;2023-06-22T07:07:29;12.10;;;10.88;;
34019;SDS011;20895;51.034;3.742;2023-06-22T07:09:55;15.35;;;10.98;;
34019;SDS011;20895;51.034;3.742;2023-06-22T07:12:20;13.27;;;11.23;;
34019;SDS011;20895;51.034;3.742;2023-06-22T07:14:46;14.85;;;12.10;;
34019;SDS011;20895;51.034;3.742;2023-06-22T07:17:11;28.35;;;12.55;;
34019;SDS011;20895;51.034;3.742;2023-06-22T07:19:36;12.63;;;11.33;;
34019;SDS011;20895;51.034;3.742;2023-06-22T07:22:01;14.90;;;11.60;;
34019;SDS011;20895;51.034;3.742;2023-06-22T07:24:27;13.43;;;11.52;;
34019;SDS011;20895;51.034;3.742;2023-06-22T07:26:52;13.40;;;12.00;;
34019;SDS011;20895;51.034;3.742;2023-06-22T07:29:17;17.58;;;12.20;;
34019;SDS011;20895;51.034;3.742;2023-06-22T07:31:43;14.82;;;12.65;;
34019;SDS011;20895;51.034;3.742;2023-06-22T07:34:08;14.65;;;12.27;;
34019;SDS011;20895;51.034;3.742;2023-06-22T07:36:33;14.57;;;11.23;;
34019;SDS011;20895;51.034;3.742;2023-06-22T07:39:01;13.75;;;11.40;;
34019;SDS011;20895;51.034;3.742;2023-06-22T07:41:27;16.73;;;11.35;;
34019;SDS011;20895;51.034;3.742;2023-06-22T07:43:52;17.85;;;12.73;;
34019;SDS011;20895;51.034;3.742;2023-06-22T07:46:17;13.43;;;12.03;;
34019;SDS011;20895;51.034;3.742;2023-06-22T07:48:43;15.85;;;11.77;;
34019;SDS011;20895;51.034;3.742;2023-06-22T07:51:09;12.95;;;11.65;;
34019;SDS011;20895;51.034;3.742;2023-06-22T07:53:34;12.20;;;10.15;;
34019;SDS011;20895;51.034;3.742;2023-06-22T07:56:01;16.60;;;11.18;;
34019;SDS011;20895;51.034;3.742;2023-06-22T07:58:26;12.95;;;10.27;;
34019;SDS011;20895;51.034;3.742;2023-06-22T08:00:51;15.50;;;10.85;;
34019;SDS011;20895;51.034;3.742;2023-06-22T08:03:17;11.32;;;10.13;;
34019;SDS011;20895;51.034;3.742;2023-06-22T08:05:42;11.20;;;9.97;;
34019;SDS011;20895;51.034;3.742;2023-06-22T08:08:07;14.33;;;11.37;;
34019;SDS011;20895;51.034;3.742;2023-06-22T08:10:32;12.77;;;10.20;;
34019;SDS011;20895;51.034;3.742;2023-06-22T08:12:58;14.57;;;11.52;;
34019;SDS011;20895;51.034;3.742;2023-06-22T08:15:23;14.13;;;10.82;;
34019;SDS011;20895;51.034;3.742;2023-06-22T08:17:49;15.10;;;11.77;;
34019;SDS011;20895;51.034;3.742;2023-06-22T08:20:14;31.38;;;14.90;;
34019;SDS011;20895;51.034;3.742;2023-06-22T08:22:40;14.15;;;11.73;;
34019;SDS011;20895;51.034;3.742;2023-06-22T08:25:05;16.30;;;11.18;;
34019;SDS011;20895;51.034;3.742;2023-06-22T08:27:31;16.35;;;12.18;;
34019;SDS011;20895;51.034;3.742;2023-06-22T08:29:59;14.25;;;10.35;;
34019;SDS011;20895;51.034;3.742;2023-06-22T08:32:28;17.02;;;11.98;;
34019;SDS011;20895;51.034;3.742;2023-06-22T08:34:56;11.75;;;10.02;;
34019;SDS011;20895;51.034;3.742;2023-06-22T08:37:22;11.45;;;10.20;;
34019;SDS011;20895;51.034;3.742;2023-06-22T08:39:55;13.13;;;9.02;;
34019;SDS011;20895;51.034;3.742;2023-06-22T08:42:20;18.05;;;11.23;;
34019;SDS011;20895;51.034;3.742;2023-06-22T08:44:45;12.10;;;10.60;;
34019;SDS011;20895;51.034;3.742;2023-06-22T08:47:14;12.82;;;10.32;;
34019;SDS011;20895;51.034;3.742;2023-06-22T08:49:39;15.40;;;11.55;;
34019;SDS011;20895;51.034;3.742;2023-06-22T08:52:04;13.68;;;12.30;;
34019;SDS011;20895;51.034;3.742;2023-06-22T08:54:30;13.85;;;12.45;;
34019;SDS011;20895;51.034;3.742;2023-06-22T08:56:58;12.48;;;11.27;;
34019;SDS011;20895;51.034;3.742;2023-06-22T08:59:23;13.43;;;12.13;;
34019;SDS011;20895;51.034;3.742;2023-06-22T09:01:48;13.68;;;12.15;;
34019;SDS011;20895;51.034;3.742;2023-06-22T09:04:13;14.35;;;12.20;;
34019;SDS011;20895;51.034;3.742;2023-06-22T09:06:39;13.68;;;11.65;;
34019;SDS011;20895;51.034;3.742;2023-06-22T09:09:09;13.45;;;12.05;;
34019;SDS011;20895;51.034;3.742;2023-06-22T09:11:35;13.93;;;12.18;;
34019;SDS011;20895;51.034;3.742;2023-06-22T09:14:01;16.95;;;11.85;;
34019;SDS011;20895;51.034;3.742;2023-06-22T09:16:26;15.05;;;13.07;;
34019;SDS011;20895;51.034;3.742;2023-06-22T09:18:51;17.77;;;12.65;;
34019;SDS011;20895;51.034;3.742;2023-06-22T09:21:16;14.75;;;11.52;;
34019;SDS011;20895;51.034;3.742;2023-06-22T09:23:42;15.23;;;11.23;;
34019;SDS011;20895;51.034;3.742;2023-06-22T09:26:07;11.93;;;10.70;;
34019;SDS011;20895;51.034;3.742;2023-06-22T09:28:33;12.70;;;11.45;;
34019;SDS011;20895;51.034;3.742;2023-06-22T09:30:58;13.15;;;11.73;;
34019;SDS011;20895;51.034;3.742;2023-06-22T09:33:25;12.80;;;11.32;;
34019;SDS011;20895;51.034;3.742;2023-06-22T09:35:50;16.35;;;11.88;;
34019;SDS011;20895;51.034;3.742;2023-06-22T09:38:16;12.55;;;11.13;;
34019;SDS011;20895;51.034;3.742;2023-06-22T09:40:41;16.50;;;12.50;;
34019;SDS011;20895;51.034;3.742;2023-06-22T09:43:06;14.73;;;11.73;;
34019;SDS011;20895;51.034;3.742;2023-06-22T09:45:32;14.73;;;12.80;;
34019;SDS011;20895;51.034;3.742;2023-06-22T09:47:57;14.75;;;11.80;;
34019;SDS011;20895;51.034;3.742;2023-06-22T09:50:22;15.80;;;13.65;;
34019;SDS011;20895;51.034;3.742;2023-06-22T09:52:47;14.73;;;12.32;;
34019;SDS011;20895;51.034;3.742;2023-06-22T09:55:15;16.27;;;12.70;;
34019;SDS011;20895;51.034;3.742;2023-06-22T09:57:41;13.80;;;11.82;;
34019;SDS011;20895;51.034;3.742;2023-06-22T10:00:06;13.30;;;11.90;;
34019;SDS011;20895;51.034;3.742;2023-06-22T10:02:34;18.10;;;11.75;;
34019;SDS011;20895;51.034;3.742;2023-06-22T10:04:59;15.05;;;12.60;;
34019;SDS011;20895;51.034;3.742;2023-06-22T10:07:24;13.15;;;11.85;;
34019;SDS011;20895;51.034;3.742;2023-06-22T10:09:50;12.30;;;11.05;;
34019;SDS011;20895;51.034;3.742;2023-06-22T10:12:15;12.85;;;10.18;;
34019;SDS011;20895;51.034;3.742;2023-06-22T10:14:40;14.27;;;10.13;;
34019;SDS011;20895;51.034;3.742;2023-06-22T10:17:06;13.25;;;11.15;;
34019;SDS011;20895;51.034;3.742;2023-06-22T10:19:32;11.98;;;9.85;;
34019;SDS011;20895;51.034;3.742;2023-06-22T10:21:57;15.60;;;10.95;;
34019;SDS011;20895;51.034;3.742;2023-06-22T10:24:22;13.67;;;10.87;;
34019;SDS011;20895;51.034;3.742;2023-06-22T10:26:47;12.20;;;10.77;;
34019;SDS011;20895;51.034;3.742;2023-06-22T10:29:13;15.18;;;13.15;;
34019;SDS011;20895;51.034;3.742;2023-06-22T10:31:38;17.17;;;13.35;;
34019;SDS011;20895;51.034;3.742;2023-06-22T10:34:03;12.55;;;10.88;;
34019;SDS011;20895;51.034;3.742;2023-06-22T10:36:28;13.27;;;11.43;;
34019;SDS011;20895;51.034;3.742;2023-06-22T10:38:54;13.75;;;12.13;;
34019;SDS011;20895;51.034;3.742;2023-06-22T10:41:20;13.82;;;12.30;;
34019;SDS011;20895;51.034;3.742;2023-06-22T10:43:45;14.50;;;12.25;;
34019;SDS011;20895;51.034;3.742;2023-06-22T10:46:11;13.95;;;12.02;;
34019;SDS011;20895;51.034;3.742;2023-06-22T10:48:36;16.38;;;12.88;;
34019;SDS011;20895;51.034;3.742;2023-06-22T10:51:01;15.55;;;13.40;;
34019;SDS011;20895;51.034;3.742;2023-06-22T10:53:26;15.65;;;14.02;;
34019;SDS011;20895;51.034;3.742;2023-06-22T10:55:52;14.57;;;13.17;;
34019;SDS011;20895;51.034;3.742;2023-06-22T10:58:18;16.90;;;14.32;;
34019;SDS011;20895;51.034;3.742;2023-06-22T11:00:44;16.88;;;15.25;;
34019;SDS011;20895;51.034;3.742;2023-06-22T11:03:09;17.10;;;14.25;;
34019;SDS011;20895;51.034;3.742;2023-06-22T11:05:35;15.95;;;14.35;;
34019;SDS011;20895;51.034;3.742;2023-06-22T11:08:00;17.60;;;15.27;;
34019;SDS011;20895;51.034;3.742;2023-06-22T11:10:25;17.08;;;15.27;;
34019;SDS011;20895;51.034;3.742;2023-06-22T11:12:51;15.65;;;14.20;;
34019;SDS011;20895;51.034;3.742;2023-06-22T11:15:18;17.52;;;15.23;;
34019;SDS011;20895;51.034;3.742;2023-06-22T11:17:43;16.90;;;15.25;;
34019;SDS011;20895;51.034;3.742;2023-06-22T11:20:08;17.33;;;15.40;;
34019;SDS011;20895;51.034;3.742;2023-06-22T11:22:36;15.90;;;14.45;;
34019;SDS011;20895;51.034;3.742;2023-06-22T11:25:01;14.80;;;13.32;;
34019;SDS011;20895;51.034;3.742;2023-06-22T11:27:26;12.27;;;10.43;;
34019;SDS011;20895;51.034;3.742;2023-06-22T11:29:52;12.30;;;10.95;;
34019;SDS011;20895;51.034;3.742;2023-06-22T11:32:18;10.82;;;9.73;;
34019;SDS011;20895;51.034;3.742;2023-06-22T11:34:43;11.23;;;9.35;;
34019;SDS011;20895;51.034;3.742;2023-06-22T11:37:08;8.73;;;7.88;;
34019;SDS011;20895;51.034;3.742;2023-06-22T11:39:33;11.15;;;6.97;;
34019;SDS011;20895;51.034;3.742;2023-06-22T11:41:59;11.20;;;7.83;;
34019;SDS011;20895;51.034;3.742;2023-06-22T11:44:24;8.88;;;7.63;;
34019;SDS011;20895;51.034;3.742;2023-06-22T11:46:49;8.77;;;6.55;;
34019;SDS011;20895;51.034;3.742;2023-06-22T11:49:14;9.25;;;6.22;;
34019;SDS011;20895;51.034;3.742;2023-06-22T11:51:40;9.65;;;5.78;;
34019;SDS011;20895;51.034;3.742;2023-06-22T11:54:05;8.27;;;6.22;;
34019;SDS011;20895;51.034;3.742;2023-06-22T11:56:30;8.45;;;6.25;;
34019;SDS011;20895;51.034;3.742;2023-06-22T11:58:57;10.82;;;6.10;;
34019;SDS011;20895;51.034;3.742;2023-06-22T12:01:22;8.57;;;5.80;;
34019;SDS011;20895;51.034;3.742;2023-06-22T12:03:47;7.53;;;6.03;;
34019;SDS011;20895;51.034;3.742;2023-06-22T12:06:13;14.07;;;9.27;;
34019;SDS011;20895;51.034;3.742;2023-06-22T12:08:38;8.30;;;5.22;;
34019;SDS011;20895;51.034;3.742;2023-06-22T12:11:03;8.43;;;5.87;;
34019;SDS011;20895;51.034;3.742;2023-06-22T12:13:28;10.70;;;5.67;;
34019;SDS011;20895;51.034;3.742;2023-06-22T12:15:54;10.80;;;6.38;;
34019;SDS011;20895;51.034;3.742;2023-06-22T12:18:19;7.30;;;5.40;;
34019;SDS011;20895;51.034;3.742;2023-06-22T12:20:46;10.35;;;6.50;;
34019;SDS011;20895;51.034;3.742;2023-06-22T12:23:12;10.52;;;7.03;;
34019;SDS011;20895;51.034;3.742;2023-06-22T12:25:37;9.82;;;7.25;;
34019;SDS011;20895;51.034;3.742;2023-06-22T12:28:02;9.18;;;7.05;;
34019;SDS011;20895;51.034;3.742;2023-06-22T12:30:29;11.38;;;8.23;;
34019;SDS011;20895;51.034;3.742;2023-06-22T12:32:54;13.13;;;6.97;;
34019;SDS011;20895;51.034;3.742;2023-06-22T12:35:20;9.38;;;6.90;;
34019;SDS011;20895;51.034;3.742;2023-06-22T12:37:45;9.50;;;7.03;;
34019;SDS011;20895;51.034;3.742;2023-06-22T12:40:11;8.98;;;7.25;;
34019;SDS011;20895;51.034;3.742;2023-06-22T12:42:36;10.30;;;7.43;;
34019;SDS011;20895;51.034;3.742;2023-06-22T12:45:01;12.75;;;7.45;;
34019;SDS011;20895;51.034;3.742;2023-06-22T12:47:27;10.70;;;8.05;;
34019;SDS011;20895;51.034;3.742;2023-06-22T12:49:52;9.15;;;7.70;;
34019;SDS011;20895;51.034;3.742;2023-06-22T12:52:17;11.53;;;8.20;;
34019;SDS011;20895;51.034;3.742;2023-06-22T12:54:43;12.48;;;7.40;;
34019;SDS011;20895;51.034;3.742;2023-06-22T12:57:08;8.98;;;7.07;;
34019;SDS011;20895;51.034;3.742;2023-06-22T12:59:33;9.98;;;6.88;;
34019;SDS011;20895;51.034;3.742;2023-06-22T13:01:58;9.07;;;6.93;;
34019;SDS011;20895;51.034;3.742;2023-06-22T13:04:24;9.10;;;7.22;;
34019;SDS011;20895;51.034;3.742;2023-06-22T13:06:49;11.57;;;8.48;;
34019;SDS011;20895;51.034;3.742;2023-06-22T13:09:15;13.10;;;8.68;;
34019;SDS011;20895;51.034;3.742;2023-06-22T13:11:41;13.35;;;11.57;;
34019;SDS011;20895;51.034;3.742;2023-06-22T13:14:06;11.68;;;9.82;;
34019;SDS011;20895;51.034;3.742;2023-06-22T13:16:31;9.52;;;8.48;;
34019;SDS011;20895;51.034;3.742;2023-06-22T13:18:57;13.17;;;11.03;;
34019;SDS011;20895;51.034;3.742;2023-06-22T13:21:22;13.37;;;10.93;;
34019;SDS011;20895;51.034;3.742;2023-06-22T13:23:47;13.38;;;11.90;;
34019;SDS011;20895;51.034;3.742;2023-06-22T13:26:12;14.82;;;12.20;;
34019;SDS011;20895;51.034;3.742;2023-06-22T13:28:38;16.77;;;13.00;;
34019;SDS011;20895;51.034;3.742;2023-06-22T13:31:03;14.25;;;12.35;;
34019;SDS011;20895;51.034;3.742;2023-06-22T13:33:28;15.10;;;13.15;;
34019;SDS011;20895;51.034;3.742;2023-06-22T13:35:54;17.52;;;13.07;;
34019;SDS011;20895;51.034;3.742;2023-06-22T13:38:20;15.25;;;13.68;;
34019;SDS011;20895;51.034;3.742;2023-06-22T13:40:45;14.30;;;12.65;;
34019;SDS011;20895;51.034;3.742;2023-06-22T13:43:12;17.55;;;13.40;;
34019;SDS011;20895;51.034;3.742;2023-06-22T13:45:37;13.48;;;11.95;;
34019;SDS011;20895;51.034;3.742;2023-06-22T13:48:03;15.75;;;12.02;;
34019;SDS011;20895;51.034;3.742;2023-06-22T13:50:28;11.77;;;10.52;;
34019;SDS011;20895;51.034;3.742;2023-06-22T13:52:54;11.88;;;10.38;;
34019;SDS011;20895;51.034;3.742;2023-06-22T13:55:20;11.68;;;10.43;;
34019;SDS011;20895;51.034;3.742;2023-06-22T13:57:46;12.23;;;11.02;;
34019;SDS011;20895;51.034;3.742;2023-06-22T14:00:11;12.32;;;11.13;;
34019;SDS011;20895;51.034;3.742;2023-06-22T14:02:39;11.93;;;10.73;;
34019;SDS011;20895;51.034;3.742;2023-06-22T14:05:05;14.48;;;11.27;;
34019;SDS011;20895;51.034;3.742;2023-06-22T14:07:31;14.48;;;12.68;;
34019;SDS011;20895;51.034;3.742;2023-06-22T14:09:56;13.18;;;11.80;;
34019;SDS011;20895;51.034;3.742;2023-06-22T14:12:22;11.60;;;10.35;;
34019;SDS011;20895;51.034;3.742;2023-06-22T14:14:48;12.43;;;11.15;;
34019;SDS011;20895;51.034;3.742;2023-06-22T14:17:13;13.02;;;11.73;;
34019;SDS011;20895;51.034;3.742;2023-06-22T14:19:38;13.68;;;12.32;;
34019;SDS011;20895;51.034;3.742;2023-06-22T14:22:03;13.38;;;11.98;;
34019;SDS011;20895;51.034;3.742;2023-06-22T14:24:29;13.77;;;12.43;;
34019;SDS011;20895;51.034;3.742;2023-06-22T14:26:54;13.43;;;12.13;;
34019;SDS011;20895;51.034;3.742;2023-06-22T14:29:20;14.63;;;12.98;;
34019;SDS011;20895;51.034;3.742;2023-06-22T14:31:46;14.60;;;13.20;;
34019;SDS011;20895;51.034;3.742;2023-06-22T14:34:11;15.90;;;14.35;;